Time;durP1;ratioP1;P1;durP2;ratioP2;P2;SDS_P1;SDS_P2;PMS_P1;PMS_P2;Temp;Humidity;BMP_temperature;BMP_pressure;BME280_temperature;BME280_humidity;BME280_pressure;Samples;Min_cycle;Max_cycle;Signal;HPM_P1;HPM_P2
2022/07/18 00:00:27;;;;;;;2.00;1.80;;;14.60;51.10;;;;;;4212695;28;20194;-73
2022/07/18 00:02:27;;;;;;;3.40;1.90;;;14.50;51.30;;;;;;4213390;28;20182;-75
2022/07/18 00:04:28;;;;;;;2.47;1.90;;;14.50;51.40;;;;;;4213984;28;20195;-73
2022/07/18 00:06:29;;;;;;;1.83;1.70;;;14.50;51.70;;;;;;4214966;28;20214;-73
2022/07/18 00:08:29;;;;;;;2.30;2.10;;;14.50;51.70;;;;;;4213099;28;20194;-73
2022/07/18 00:10:30;;;;;;;1.80;1.70;;;14.40;52.40;;;;;;4213886;28;20190;-73
2022/07/18 00:12:31;;;;;;;3.07;2.30;;;14.40;52.50;;;;;;4211977;28;20186;-75
2022/07/18 00:14:33;;;;;;;1.80;1.70;;;14.40;52.40;;;;;;4214136;28;20238;-75
2022/07/18 00:16:34;;;;;;;2.27;2.07;;;14.40;52.90;;;;;;4213948;28;20625;-74
2022/07/18 00:18:34;;;;;;;2.30;1.90;;;14.30;52.80;;;;;;4214140;28;20178;-75
2022/07/18 00:20:35;;;;;;;2.23;2.00;;;14.30;53.10;;;;;;4214049;28;20198;-75
2022/07/18 00:22:36;;;;;;;2.07;1.87;;;14.20;53.50;;;;;;4213807;28;20175;-75
2022/07/18 00:24:39;;;;;;;2.23;1.83;;;14.10;53.80;;;;;;4214008;28;20195;-75
2022/07/18 00:26:40;;;;;;;2.13;2.03;;;14.10;53.70;;;;;;4213883;28;20179;-75
2022/07/18 00:28:41;;;;;;;1.83;1.70;;;14.20;53.40;;;;;;4214077;28;20895;-77
2022/07/18 00:30:42;;;;;;;2.10;1.90;;;14.10;53.60;;;;;;4213807;28;20701;-75
2022/07/18 00:32:42;;;;;;;2.00;1.83;;;14.10;53.60;;;;;;4213905;28;20174;-75
2022/07/18 00:34:43;;;;;;;1.80;1.70;;;14.10;53.60;;;;;;4214020;28;20205;-75
2022/07/18 00:36:43;;;;;;;2.50;2.10;;;14.10;53.70;;;;;;4213844;28;20206;-75
2022/07/18 00:38:44;;;;;;;2.10;1.90;;;14.00;54.30;;;;;;4213607;28;20266;-75
2022/07/18 00:40:45;;;;;;;3.10;2.10;;;14.00;54.50;;;;;;4213543;28;20247;-75
2022/07/18 00:42:46;;;;;;;2.13;1.60;;;14.00;54.60;;;;;;4213820;28;20186;-75
2022/07/18 00:44:46;;;;;;;2.10;1.90;;;13.90;54.50;;;;;;4213919;28;20282;-75
2022/07/18 00:46:53;;;;;;;2.17;1.70;;;13.90;54.40;;;;;;4213772;28;20183;-76
2022/07/18 00:48:54;;;;;;;2.13;1.83;;;13.90;54.30;;;;;;4213183;28;20196;-76
2022/07/18 00:50:55;;;;;;;2.20;2.10;;;13.90;54.60;;;;;;4212870;28;20178;-76
2022/07/18 00:52:55;;;;;;;3.33;1.90;;;13.90;54.90;;;;;;4213375;28;20222;-77
2022/07/18 00:54:56;;;;;;;5.70;1.90;;;13.90;55.30;;;;;;4213611;28;20207;-76
2022/07/18 00:56:57;;;;;;;1.97;1.80;;;13.90;54.80;;;;;;4213145;28;20287;-76
2022/07/18 00:58:57;;;;;;;2.30;2.10;;;13.80;54.30;;;;;;4213591;28;20893;-76
2022/07/18 01:03:18;;;;;;;2.20;2.00;;;13.80;54.70;;;;;;4213831;28;20248;-76
2022/07/18 01:05:19;;;;;;;1.90;1.80;;;13.80;54.90;;;;;;4213474;28;20202;-76
2022/07/18 01:07:19;;;;;;;2.50;1.60;;;13.80;55.10;;;;;;4213195;28;20178;-76
2022/07/18 01:09:20;;;;;;;3.10;2.00;;;13.70;54.90;;;;;;4213459;28;20201;-76
2022/07/18 01:11:21;;;;;;;2.47;1.73;;;13.70;55.00;;;;;;4212646;28;20265;-76
2022/07/18 01:13:22;;;;;;;3.20;1.90;;;13.70;55.30;;;;;;4213225;28;20175;-76
2022/07/18 01:15:22;;;;;;;2.07;1.87;;;13.70;55.50;;;;;;4213411;28;20210;-76
2022/07/18 01:17:23;;;;;;;1.90;1.80;;;13.60;55.50;;;;;;4213028;28;20271;-75
2022/07/18 01:19:23;;;;;;;2.20;2.00;;;13.60;55.60;;;;;;4211447;28;20188;-77
2022/07/18 01:21:24;;;;;;;2.00;1.80;;;13.60;55.60;;;;;;4197289;28;20199;-77
2022/07/18 01:23:24;;;;;;;2.30;1.67;;;13.50;55.50;;;;;;4196759;28;20258;-77
2022/07/18 01:25:26;;;;;;;2.30;2.10;;;13.50;56.00;;;;;;4196758;28;20257;-77
2022/07/18 01:27:26;;;;;;;4.23;2.00;;;13.40;55.90;;;;;;4195653;28;20192;-77
2022/07/18 01:29:27;;;;;;;3.70;2.00;;;13.40;56.20;;;;;;4196495;28;20218;-77
2022/07/18 01:31:30;;;;;;;2.40;2.00;;;13.40;56.20;;;;;;4196143;28;20195;-77
2022/07/18 01:33:32;;;;;;;1.90;1.70;;;13.30;56.60;;;;;;4196609;28;20256;-76
2022/07/18 01:35:33;;;;;;;2.10;1.90;;;13.30;56.60;;;;;;4196697;28;20943;-77
2022/07/18 01:37:33;;;;;;;1.80;1.70;;;13.30;56.60;;;;;;4196708;28;20221;-77
2022/07/18 01:39:35;;;;;;;2.53;1.80;;;13.30;57.00;;;;;;4196290;28;20178;-77
2022/07/18 01:41:35;;;;;;;2.00;1.80;;;13.20;57.10;;;;;;4202585;28;20660;-77
2022/07/18 01:43:40;;;;;;;2.43;1.60;;;13.20;56.80;;;;;;4213417;28;20175;-77
2022/07/18 01:45:41;;;;;;;1.97;1.77;;;13.30;56.80;;;;;;4213484;28;20577;-77
2022/07/18 01:47:42;;;;;;;1.90;1.80;;;13.20;57.30;;;;;;4213126;28;20225;-77
2022/07/18 01:49:43;;;;;;;4.43;1.93;;;13.10;57.50;;;;;;4213410;28;20175;-77
2022/07/18 01:51:54;;;;;;;1.70;1.60;;;13.10;58.00;;;;;;4211446;28;20179;-77
2022/07/18 01:53:59;;;;;;;4.63;1.77;;;13.10;57.90;;;;;;4213166;28;20186;-77
2022/07/18 01:55:59;;;;;;;1.90;1.80;;;13.10;57.70;;;;;;4212995;28;20199;-77
2022/07/18 01:58:00;;;;;;;3.37;1.80;;;13.10;58.00;;;;;;4213283;28;20237;-77
2022/07/18 02:00:00;;;;;;;2.67;1.80;;;13.10;57.80;;;;;;4213148;28;20228;-77
2022/07/18 02:02:03;;;;;;;1.83;1.73;;;13.00;57.90;;;;;;4214608;28;20178;-77
2022/07/18 02:04:04;;;;;;;2.90;1.90;;;13.00;58.10;;;;;;4216008;28;20190;-77
2022/07/18 02:06:05;;;;;;;2.10;1.90;;;13.00;57.90;;;;;;4218732;28;20281;-78
2022/07/18 02:08:05;;;;;;;2.37;1.90;;;13.00;59.20;;;;;;4217158;28;20175;-77
2022/07/18 02:10:08;;;;;;;2.20;1.73;;;12.90;58.70;;;;;;4216754;28;20177;-77
2022/07/18 02:12:09;;;;;;;2.60;1.80;;;12.90;58.90;;;;;;4216625;28;20170;-77
2022/07/18 02:14:09;;;;;;;1.90;1.70;;;12.90;59.20;;;;;;4217424;28;20220;-78
2022/07/18 02:16:10;;;;;;;2.87;1.87;;;12.80;59.00;;;;;;4218682;28;20171;-78
2022/07/18 02:18:11;;;;;;;2.80;2.00;;;12.80;59.10;;;;;;4211913;28;20234;-78
2022/07/18 02:20:13;;;;;;;2.13;1.80;;;12.70;59.00;;;;;;4218851;28;20187;-80
2022/07/18 02:22:13;;;;;;;3.37;1.77;;;12.80;58.60;;;;;;4218162;28;20222;-78
2022/07/18 02:24:14;;;;;;;1.80;1.70;;;12.80;58.40;;;;;;4218228;28;20176;-78
2022/07/18 02:26:15;;;;;;;1.97;1.80;;;12.80;58.60;;;;;;4217393;28;20193;-78
2022/07/18 02:28:15;;;;;;;2.43;1.73;;;12.80;58.60;;;;;;4219294;28;20660;-78
2022/07/18 02:30:17;;;;;;;1.93;1.73;;;12.80;58.90;;;;;;4220105;28;20843;-78
2022/07/18 02:32:18;;;;;;;3.07;1.97;;;12.70;59.10;;;;;;4220982;28;20194;-78
2022/07/18 02:34:18;;;;;;;1.93;1.73;;;12.70;59.40;;;;;;4217130;28;20205;-78
2022/07/18 02:36:19;;;;;;;2.13;1.60;;;12.70;60.10;;;;;;4216861;28;20246;-78
2022/07/18 02:38:19;;;;;;;1.80;1.70;;;12.60;60.20;;;;;;4222860;28;20232;-78
2022/07/18 02:40:20;;;;;;;2.27;1.70;;;12.60;60.30;;;;;;4223200;28;20175;-78
2022/07/18 02:42:20;;;;;;;6.63;1.90;;;12.60;60.30;;;;;;4222177;28;20185;-79
2022/07/18 02:44:21;;;;;;;2.83;1.90;;;12.50;60.50;;;;;;4223409;28;20228;-79
2022/07/18 02:46:22;;;;;;;1.97;1.77;;;12.50;60.60;;;;;;4223926;28;20190;-79
2022/07/18 02:48:22;;;;;;;2.03;1.57;;;12.50;60.50;;;;;;4223421;28;20299;-78
2022/07/18 02:50:23;;;;;;;2.13;1.67;;;12.50;60.30;;;;;;4217088;28;20179;-77
2022/07/18 02:52:24;;;;;;;3.13;1.90;;;12.50;60.30;;;;;;4216570;28;20182;-78
2022/07/18 02:54:25;;;;;;;2.13;2.00;;;12.50;60.40;;;;;;4217640;28;20264;-78
2022/07/18 02:56:26;;;;;;;1.77;1.50;;;12.50;60.10;;;;;;4218147;28;20199;-78
2022/07/18 02:58:26;;;;;;;1.90;1.70;;;12.50;60.10;;;;;;4217935;28;20175;-77
2022/07/18 03:00:27;;;;;;;2.10;1.80;;;12.50;61.20;;;;;;4218930;28;20178;-78
2022/07/18 03:02:27;;;;;;;2.67;1.70;;;12.40;60.20;;;;;;4218707;28;20184;-78
2022/07/18 03:04:28;;;;;;;2.57;1.90;;;12.40;60.00;;;;;;4219022;28;20194;-78
2022/07/18 03:06:29;;;;;;;1.70;1.60;;;12.40;60.40;;;;;;4220149;28;20598;-79
2022/07/18 03:08:29;;;;;;;2.90;1.80;;;12.30;60.70;;;;;;4220943;28;20200;-78
2022/07/18 03:10:30;;;;;;;1.80;1.60;;;12.40;61.80;;;;;;4220809;28;20190;-78
2022/07/18 03:12:30;;;;;;;2.13;1.93;;;12.40;61.20;;;;;;4220665;28;20181;-79
2022/07/18 03:14:31;;;;;;;2.17;1.97;;;12.30;60.50;;;;;;4221080;28;20222;-78
2022/07/18 03:16:32;;;;;;;2.30;2.00;;;12.30;60.60;;;;;;4222593;28;20320;-79
2022/07/18 03:18:32;;;;;;;2.10;1.90;;;12.30;60.20;;;;;;4222709;28;20181;-79
2022/07/18 03:20:33;;;;;;;2.00;1.90;;;12.30;60.20;;;;;;4223084;28;20194;-78
2022/07/18 03:22:33;;;;;;;1.97;1.60;;;12.30;60.30;;;;;;4221721;28;20172;-80
2022/07/18 03:24:34;;;;;;;2.70;1.90;;;12.30;60.20;;;;;;4223035;28;20202;-79
2022/07/18 03:26:34;;;;;;;2.70;1.63;;;12.30;60.30;;;;;;4223579;28;20197;-79
2022/07/18 03:28:35;;;;;;;1.60;1.50;;;12.30;60.40;;;;;;4209521;28;20178;-79
2022/07/18 03:30:36;;;;;;;2.33;1.80;;;12.20;61.20;;;;;;4207707;28;20174;-80
2022/07/18 03:32:36;;;;;;;3.30;1.60;;;12.20;61.30;;;;;;4206542;28;20187;-80
2022/07/18 03:34:37;;;;;;;2.30;2.03;;;12.20;61.00;;;;;;4207082;28;20206;-80
2022/07/18 03:36:38;;;;;;;1.50;1.40;;;12.20;61.30;;;;;;4215992;28;20206;-80
2022/07/18 03:38:42;;;;;;;3.60;1.80;;;12.20;61.40;;;;;;4223981;28;20191;-80
2022/07/18 03:40:43;;;;;;;1.90;1.60;;;12.20;61.60;;;;;;4223369;28;20189;-81
2022/07/18 03:42:43;;;;;;;2.17;1.77;;;12.20;61.60;;;;;;4223777;28;20190;-79
2022/07/18 03:44:45;;;;;;;3.67;1.60;;;12.10;61.80;;;;;;4222181;28;20296;-80
2022/07/18 03:46:46;;;;;;;2.23;1.70;;;12.20;61.70;;;;;;4223740;28;20177;-79
2022/07/18 03:48:46;;;;;;;1.70;1.57;;;12.20;61.90;;;;;;4224745;28;20254;-81
2022/07/18 03:50:47;;;;;;;1.93;1.77;;;12.20;61.70;;;;;;4223486;28;20195;-81
2022/07/18 03:52:47;;;;;;;2.37;1.90;;;12.20;62.00;;;;;;4223733;28;20181;-82
2022/07/18 03:54:48;;;;;;;3.23;1.80;;;12.20;62.00;;;;;;4223558;28;20704;-80
2022/07/18 03:56:49;;;;;;;2.17;1.90;;;12.10;62.30;;;;;;4223115;28;20214;-82
2022/07/18 03:58:50;;;;;;;3.77;1.70;;;12.10;62.50;;;;;;4224205;28;20193;-81
2022/07/18 04:00:50;;;;;;;1.77;1.67;;;12.10;62.60;;;;;;4223547;28;20241;-81
2022/07/18 04:02:51;;;;;;;2.00;1.80;;;12.10;62.60;;;;;;4223255;28;20278;-81
2022/07/18 04:04:51;;;;;;;2.17;1.70;;;12.10;62.00;;;;;;4232961;28;20182;-79
2022/07/18 04:06:52;;;;;;;1.77;1.67;;;12.10;61.30;;;;;;4225964;28;20185;-81
2022/07/18 04:08:53;;;;;;;1.83;1.60;;;12.20;61.60;;;;;;4224971;28;20195;-81
2022/07/18 04:10:53;;;;;;;1.67;1.57;;;12.20;61.90;;;;;;4223603;28;20225;-83
2022/07/18 04:12:55;;;;;;;2.07;1.83;;;12.20;62.30;;;;;;4223458;28;20187;-80
2022/07/18 04:14:56;;;;;;;1.87;1.70;;;12.20;62.60;;;;;;4223814;28;20206;-81
2022/07/18 04:16:56;;;;;;;4.60;3.07;;;12.10;62.80;;;;;;4222786;28;20206;-82
2022/07/18 04:18:57;;;;;;;3.03;1.80;;;12.10;62.80;;;;;;4223655;28;20236;-81
2022/07/18 04:20:57;;;;;;;2.00;1.73;;;12.10;62.10;;;;;;4221848;28;20200;-82
2022/07/18 04:23:00;;;;;;;2.53;1.60;;;12.20;62.00;;;;;;4222864;28;20637;-83
2022/07/18 04:25:01;;;;;;;1.87;1.40;;;12.20;61.70;;;;;;4221266;28;20190;-82
2022/07/18 04:27:02;;;;;;;1.97;1.70;;;12.30;61.60;;;;;;4222283;28;20189;-82
2022/07/18 04:29:03;;;;;;;1.83;1.70;;;12.30;61.80;;;;;;4221567;28;20183;-80
2022/07/18 04:31:04;;;;;;;2.37;1.83;;;12.30;61.70;;;;;;4220851;28;20171;-81
2022/07/18 04:33:07;;;;;;;1.80;1.70;;;12.40;61.40;;;;;;4213978;28;20274;-82
2022/07/18 04:35:08;;;;;;;1.60;1.50;;;12.40;61.20;;;;;;4221153;28;20658;-80
2022/07/18 04:37:09;;;;;;;1.70;1.60;;;12.40;61.20;;;;;;4222005;28;20198;-80
2022/07/18 04:39:09;;;;;;;2.43;1.67;;;12.40;61.40;;;;;;4222065;28;20190;-80
2022/07/18 04:41:10;;;;;;;1.70;1.50;;;12.50;61.50;;;;;;4221782;28;20190;-82
2022/07/18 04:43:11;;;;;;;2.50;1.97;;;12.40;61.20;;;;;;4222575;28;20645;-81
2022/07/18 04:45:13;;;;;;;5.17;2.67;;;12.50;61.50;;;;;;4226241;28;20260;-83
2022/07/18 04:47:13;;;;;;;8.83;1.87;;;12.50;61.90;;;;;;4223835;28;20188;-80
2022/07/18 04:49:14;;;;;;;4.13;1.70;;;12.50;61.30;;;;;;4222971;28;20185;-81
2022/07/18 04:51:14;;;;;;;2.03;1.83;;;12.60;61.70;;;;;;4226416;28;20175;-79
2022/07/18 04:53:16;;;;;;;1.90;1.50;;;12.70;61.80;;;;;;4223022;28;20171;-80
2022/07/18 04:55:18;;;;;;;2.40;1.80;;;12.70;61.40;;;;;;4220060;28;20202;-80
2022/07/18 04:57:18;;;;;;;1.70;1.60;;;12.80;61.30;;;;;;4220603;28;20217;-81
2022/07/18 04:59:19;;;;;;;2.23;1.80;;;12.80;61.10;;;;;;4219537;28;20190;-80
2022/07/18 05:01:19;;;;;;;5.43;1.57;;;12.90;61.10;;;;;;4217882;28;20178;-81
2022/07/18 05:03:20;;;;;;;1.83;1.70;;;13.00;61.30;;;;;;4217060;28;20171;-80
2022/07/18 05:05:21;;;;;;;2.17;1.83;;;12.90;61.10;;;;;;4217929;28;20195;-81
2022/07/18 05:07:21;;;;;;;2.17;1.77;;;12.90;61.60;;;;;;4217270;28;20182;-81
2022/07/18 05:09:22;;;;;;;2.00;1.80;;;13.00;62.00;;;;;;4217090;28;20242;-81
2022/07/18 05:11:22;;;;;;;2.03;1.70;;;13.10;61.60;;;;;;4216019;28;20649;-80
2022/07/18 05:13:23;;;;;;;1.70;1.60;;;13.10;61.20;;;;;;4215628;28;20183;-80
2022/07/18 05:15:24;;;;;;;2.00;1.80;;;13.20;60.90;;;;;;4215881;28;20225;-82
2022/07/18 05:17:25;;;;;;;2.50;1.70;;;13.30;60.40;;;;;;4215282;28;20222;-81
2022/07/18 05:19:25;;;;;;;2.53;1.87;;;13.20;61.10;;;;;;4216056;28;20174;-82
2022/07/18 05:21:26;;;;;;;2.00;1.80;;;13.30;61.20;;;;;;4215883;28;20191;-81
2022/07/18 05:23:27;;;;;;;2.37;1.87;;;13.30;61.50;;;;;;4216427;28;20887;-81
2022/07/18 05:25:27;;;;;;;1.97;1.77;;;13.40;60.80;;;;;;4216372;28;20195;-81
2022/07/18 05:27:28;;;;;;;2.23;1.83;;;13.50;59.50;;;;;;4213903;28;20281;-82
2022/07/18 05:29:29;;;;;;;2.23;1.60;;;13.50;59.70;;;;;;4210074;28;20187;-81
2022/07/18 05:31:29;;;;;;;3.00;1.83;;;13.50;60.00;;;;;;4197727;28;20199;-80
2022/07/18 05:33:30;;;;;;;2.30;1.60;;;13.60;59.00;;;;;;4198837;28;20228;-82
2022/07/18 05:35:30;;;;;;;3.27;1.63;;;13.70;59.10;;;;;;4200398;28;20200;-81
2022/07/18 05:37:31;;;;;;;2.60;1.90;;;13.80;59.50;;;;;;4203362;28;20751;-82
2022/07/18 05:39:32;;;;;;;2.33;1.60;;;13.80;60.40;;;;;;4218604;28;20182;-81
2022/07/18 05:41:32;;;;;;;3.20;1.70;;;13.80;60.30;;;;;;4217340;28;20175;-81
2022/07/18 05:43:33;;;;;;;2.07;1.50;;;13.90;59.60;;;;;;4217275;28;20177;-81
2022/07/18 05:45:33;;;;;;;3.07;1.90;;;14.00;58.60;;;;;;4218170;28;20230;-80
2022/07/18 05:47:34;;;;;;;2.00;1.57;;;14.20;57.50;;;;;;4218434;28;20186;-81
2022/07/18 05:49:35;;;;;;;1.87;1.73;;;14.20;57.00;;;;;;4218653;28;20555;-81
2022/07/18 05:51:35;;;;;;;2.87;1.80;;;14.30;55.90;;;;;;4215568;28;20240;-82
2022/07/18 05:53:36;;;;;;;1.73;1.60;;;14.40;56.20;;;;;;4215935;28;20280;-81
2022/07/18 05:55:37;;;;;;;4.20;2.10;;;14.50;56.50;;;;;;4217476;28;20609;-81
2022/07/18 05:57:38;;;;;;;1.87;1.70;;;14.50;56.30;;;;;;4216822;28;20767;-81
2022/07/18 05:59:38;;;;;;;2.27;1.70;;;14.60;55.60;;;;;;4218293;28;20238;-82
2022/07/18 06:01:39;;;;;;;2.17;1.80;;;14.70;55.20;;;;;;4219370;28;20291;-82
2022/07/18 06:03:39;;;;;;;1.53;1.43;;;14.80;54.80;;;;;;4237698;28;20177;-81
2022/07/18 06:05:40;;;;;;;3.00;1.90;;;14.90;54.70;;;;;;4226736;28;20195;-82
2022/07/18 06:07:41;;;;;;;2.13;1.67;;;14.90;55.20;;;;;;4218824;28;20207;-82
2022/07/18 06:09:42;;;;;;;1.93;1.70;;;15.00;54.80;;;;;;4219229;28;20175;-82
2022/07/18 06:11:42;;;;;;;2.70;1.83;;;15.10;54.80;;;;;;4218967;28;20641;-82
2022/07/18 06:13:43;;;;;;;2.10;1.90;;;15.20;53.80;;;;;;4219810;28;20688;-82
2022/07/18 06:15:44;;;;;;;3.23;1.80;;;15.30;54.30;;;;;;4220069;28;20202;-82
2022/07/18 06:17:44;;;;;;;1.90;1.70;;;15.30;53.90;;;;;;4220152;28;20203;-81
2022/07/18 06:19:45;;;;;;;2.37;1.73;;;15.40;54.00;;;;;;4219651;28;20232;-82
2022/07/18 06:21:46;;;;;;;1.87;1.67;;;15.50;53.20;;;;;;4219376;28;20195;-80
2022/07/18 06:23:47;;;;;;;3.47;1.60;;;15.60;52.40;;;;;;4219461;28;20668;-82
2022/07/18 06:25:48;;;;;;;1.63;1.53;;;15.80;53.10;;;;;;4218840;28;20199;-80
2022/07/18 06:27:48;;;;;;;1.97;1.87;;;15.90;52.00;;;;;;4218059;28;20221;-81
2022/07/18 06:29:49;;;;;;;2.90;1.80;;;15.90;52.10;;;;;;4217692;28;20179;-81
2022/07/18 06:31:49;;;;;;;1.93;1.70;;;16.10;50.40;;;;;;4217472;28;20212;-81
2022/07/18 06:33:50;;;;;;;2.37;1.97;;;16.20;51.00;;;;;;4219031;28;20595;-81
2022/07/18 06:35:50;;;;;;;1.87;1.57;;;16.40;50.60;;;;;;4218745;28;20713;-80
2022/07/18 06:37:51;;;;;;;3.80;1.90;;;16.40;51.00;;;;;;4218107;28;20260;-81
2022/07/18 06:39:51;;;;;;;6.27;1.80;;;16.50;51.50;;;;;;4217070;28;20189;-80
2022/07/18 06:41:52;;;;;;;1.60;1.50;;;16.60;51.70;;;;;;4217471;28;20183;-81
2022/07/18 06:43:52;;;;;;;2.20;1.80;;;16.80;49.80;;;;;;4218332;28;20203;-81
2022/07/18 06:45:53;;;;;;;2.27;1.70;;;17.00;48.50;;;;;;4218434;28;20206;-81
2022/07/18 06:47:53;;;;;;;2.40;1.60;;;17.20;47.90;;;;;;4217331;28;20178;-80
2022/07/18 06:49:54;;;;;;;4.33;1.60;;;17.40;48.10;;;;;;4217564;28;20217;-81
2022/07/18 06:51:55;;;;;;;2.03;1.80;;;17.60;47.80;;;;;;4217355;28;20608;-81
2022/07/18 06:53:55;;;;;;;2.43;1.80;;;17.90;46.80;;;;;;4215914;28;20585;-81
2022/07/18 06:55:56;;;;;;;2.00;1.80;;;18.20;46.10;;;;;;4216654;28;20203;-81
2022/07/18 06:57:57;;;;;;;3.03;1.53;;;18.50;44.40;;;;;;4216451;28;20203;-81
2022/07/18 06:59:57;;;;;;;1.60;1.50;;;19.00;39.90;;;;;;4216796;28;20236;-72
2022/07/18 07:01:58;;;;;;;1.50;1.40;;;19.60;37.40;;;;;;4214952;28;20186;-81
2022/07/18 07:03:58;;;;;;;2.70;1.60;;;19.50;39.10;;;;;;4216053;28;20190;-81
2022/07/18 07:05:59;;;;;;;1.70;1.60;;;19.70;39.60;;;;;;4216097;28;20202;-81
2022/07/18 07:07:59;;;;;;;2.00;1.57;;;19.70;39.80;;;;;;4216401;28;20187;-81
2022/07/18 07:10:00;;;;;;;2.73;1.90;;;19.80;38.20;;;;;;4216129;28;20253;-80
2022/07/18 07:12:01;;;;;;;2.73;1.60;;;20.10;37.30;;;;;;4214243;28;20187;-81
2022/07/18 07:14:01;;;;;;;1.90;1.67;;;20.30;36.30;;;;;;4216987;28;20200;-81
2022/07/18 07:16:02;;;;;;;1.90;1.80;;;20.70;36.30;;;;;;4216136;28;20198;-81
2022/07/18 07:18:03;;;;;;;2.77;1.80;;;21.10;35.80;;;;;;4215040;28;20580;-82
2022/07/18 07:20:05;;;;;;;4.20;1.93;;;21.40;33.70;;;;;;4216128;28;20175;-81
2022/07/18 07:22:06;;;;;;;2.33;1.83;;;21.50;34.10;;;;;;4203051;28;20263;-76
2022/07/18 07:24:07;;;;;;;2.60;1.90;;;21.70;33.30;;;;;;4196269;28;20412;-72
2022/07/18 07:26:08;;;;;;;2.70;1.60;;;21.80;33.20;;;;;;4210842;28;20402;-74
2022/07/18 07:28:09;;;;;;;2.37;1.90;;;22.00;33.10;;;;;;4210262;28;20666;-80
2022/07/18 07:30:10;;;;;;;2.47;1.80;;;22.20;32.10;;;;;;4210467;28;20269;-76
2022/07/18 07:32:11;;;;;;;2.03;1.70;;;22.30;32.50;;;;;;4210550;28;20178;-76
2022/07/18 07:34:11;;;;;;;3.47;1.80;;;22.30;32.10;;;;;;4211435;28;20175;-76
2022/07/18 07:36:12;;;;;;;3.43;1.77;;;22.30;31.60;;;;;;4210480;28;20269;-78
2022/07/18 07:38:18;;;;;;;1.77;1.53;;;22.20;36.10;;;;;;4211393;28;20249;-76
2022/07/18 07:40:19;;;;;;;3.27;1.70;;;22.30;30.90;;;;;;4210591;28;20179;-76
2022/07/18 07:42:19;;;;;;;2.07;1.60;;;22.70;31.50;;;;;;4210011;28;20528;-76
2022/07/18 07:44:20;;;;;;;2.40;1.90;;;22.80;30.20;;;;;;4211600;28;20368;-77
2022/07/18 07:46:20;;;;;;;3.90;2.00;;;23.00;30.70;;;;;;4211072;28;20264;-77
2022/07/18 07:48:21;;;;;;;2.17;1.87;;;23.20;30.10;;;;;;4210532;28;20609;-75
2022/07/18 07:50:22;;;;;;;6.80;2.20;;;23.20;30.00;;;;;;4210919;28;20262;-77
2022/07/18 07:52:23;;;;;;;3.27;1.90;;;23.30;29.70;;;;;;4210526;28;20187;-77
2022/07/18 07:54:24;;;;;;;6.80;1.93;;;23.40;29.70;;;;;;4212120;28;20203;-79
2022/07/18 07:56:24;;;;;;;2.47;2.27;;;23.50;29.60;;;;;;4213001;28;20230;-78
2022/07/18 07:58:26;;;;;;;2.40;1.87;;;23.60;29.20;;;;;;4211738;28;20833;-78
2022/07/18 08:00:28;;;;;;;2.30;2.00;;;23.60;29.00;;;;;;4211546;28;20183;-78
2022/07/18 08:02:28;;;;;;;4.20;1.90;;;23.70;28.80;;;;;;4224699;28;20179;-74
2022/07/18 08:04:29;;;;;;;2.13;1.73;;;23.80;29.30;;;;;;4210215;28;20205;-74
2022/07/18 08:06:30;;;;;;;3.70;1.93;;;23.80;28.60;;;;;;4210143;28;20183;-74
2022/07/18 08:08:30;;;;;;;3.30;1.90;;;24.00;28.60;;;;;;4209832;28;20198;-76
2022/07/18 08:10:31;;;;;;;2.40;2.00;;;24.10;28.20;;;;;;4210703;28;20197;-76
2022/07/18 08:12:32;;;;;;;2.97;2.37;;;24.20;29.70;;;;;;4211092;28;20186;-78
2022/07/18 08:14:33;;;;;;;2.37;1.93;;;24.30;27.50;;;;;;4211356;28;20270;-78
2022/07/18 08:16:33;;;;;;;2.50;2.30;;;24.40;27.90;;;;;;4209230;28;20864;-79
2022/07/18 08:18:34;;;;;;;2.70;2.50;;;24.40;27.30;;;;;;4211207;28;20179;-77
2022/07/18 08:20:35;;;;;;;2.27;2.07;;;24.40;26.90;;;;;;4211926;28;20199;-79
2022/07/18 08:22:35;;;;;;;2.43;1.63;;;24.30;27.10;;;;;;4208882;28;20650;-80
2022/07/18 08:24:36;;;;;;;2.60;1.90;;;24.50;26.80;;;;;;4209866;28;20194;-79
2022/07/18 08:26:39;;;;;;;3.53;1.87;;;24.70;26.00;;;;;;4210250;28;20183;-78
2022/07/18 08:28:39;;;;;;;2.77;2.43;;;24.80;26.70;;;;;;4210235;28;20228;-75
2022/07/18 08:30:40;;;;;;;2.97;1.80;;;24.80;26.30;;;;;;4209962;28;20191;-75
2022/07/18 08:32:41;;;;;;;3.57;2.43;;;24.70;26.40;;;;;;4210107;28;20206;-74
2022/07/18 08:34:42;;;;;;;3.20;2.00;;;24.70;25.90;;;;;;4208652;28;20592;-74
2022/07/18 08:36:42;;;;;;;2.80;2.10;;;24.80;25.60;;;;;;4208676;28;20217;-75
2022/07/18 08:38:43;;;;;;;2.23;1.77;;;24.90;25.70;;;;;;4210621;28;20167;-74
2022/07/18 08:40:46;;;;;;;4.60;2.70;;;25.00;25.20;;;;;;4208565;28;20534;-74
2022/07/18 08:42:51;;;;;;;5.47;1.97;;;25.00;25.50;;;;;;4208121;28;20270;-75
2022/07/18 08:44:55;;;;;;;3.87;2.10;;;24.90;26.30;;;;;;4209197;28;20304;-73
2022/07/18 08:46:59;;;;;;;2.07;1.90;;;25.00;25.50;;;;;;4211145;28;21463;-74
2022/07/18 08:49:00;;;;;;;2.20;2.00;;;25.00;24.90;;;;;;4210215;28;20175;-73
2022/07/18 08:51:01;;;;;;;2.77;1.73;;;25.00;25.00;;;;;;4207250;28;20213;-74
2022/07/18 08:53:02;;;;;;;1.73;1.60;;;25.20;25.30;;;;;;4213784;28;20232;-75
2022/07/18 08:55:03;;;;;;;3.10;2.90;;;25.20;23.80;;;;;;4214422;28;20222;-75
2022/07/18 08:57:03;;;;;;;2.57;1.80;;;25.50;24.70;;;;;;4229907;28;20233;-76
2022/07/18 08:59:04;;;;;;;2.60;2.40;;;25.80;24.40;;;;;;4215806;28;20212;-76
2022/07/18 09:01:05;;;;;;;3.07;2.27;;;25.70;23.20;;;;;;4225615;28;20183;-74
2022/07/18 09:03:06;;;;;;;1.87;1.77;;;25.50;23.80;;;;;;4214093;28;20182;-75
2022/07/18 09:05:18;;;;;;;1.90;1.80;;;25.50;23.90;;;;;;4229324;28;20251;-74
2022/07/18 09:07:45;;;;;;;2.40;1.93;;;25.80;25.00;;;;;;4199839;28;20199;-73
2022/07/18 09:09:53;;;;;;;2.87;2.00;;;26.00;24.60;;;;;;4224989;28;20190;-76
2022/07/18 09:11:58;;;;;;;4.77;2.40;;;26.00;24.50;;;;;;4214612;28;20197;-77
2022/07/18 09:13:59;;;;;;;3.40;2.00;;;26.10;23.40;;;;;;4214316;28;20254;-76
2022/07/18 09:16:04;;;;;;;2.40;1.80;;;26.20;22.80;;;;;;4219994;28;20190;-78
2022/07/18 09:18:04;;;;;;;2.10;1.77;;;26.30;23.20;;;;;;4224315;28;20831;-74
2022/07/18 09:20:10;;;;;;;3.33;1.90;;;26.20;24.00;;;;;;4221621;28;20194;-77
2022/07/18 09:22:12;;;;;;;2.33;1.70;;;26.50;24.30;;;;;;4219750;28;20586;-77
2022/07/18 09:24:15;;;;;;;1.97;1.87;;;26.40;22.10;;;;;;4217963;28;20262;-76
2022/07/18 09:26:37;;;;;;;2.17;1.90;;;26.50;22.60;;;;;;4219683;28;20178;-78
2022/07/18 09:28:52;;;;;;;2.73;1.70;;;26.70;22.40;;;;;;4226242;28;20186;-75
2022/07/18 09:30:52;;;;;;;2.27;2.00;;;26.90;22.20;;;;;;4214263;28;20220;-74
2022/07/18 09:33:02;;;;;;;6.37;5.97;;;27.00;22.50;;;;;;4213756;28;20258;-75
2022/07/18 09:35:24;;;;;;;3.60;1.70;;;26.70;22.10;;;;;;4213252;28;20279;-73
2022/07/18 09:37:27;;;;;;;3.30;1.70;;;26.50;22.60;;;;;;4200198;28;20202;-73
2022/07/18 09:39:29;;;;;;;3.80;2.23;;;26.70;23.20;;;;;;4227836;28;20197;-74
2022/07/18 09:41:30;;;;;;;4.00;1.77;;;27.00;23.30;;;;;;4215093;28;20258;-73
2022/07/18 09:43:37;;;;;;;2.53;2.00;;;27.00;22.90;;;;;;4227530;28;20171;-73
2022/07/18 09:45:49;;;;;;;2.20;1.47;;;27.00;22.00;;;;;;4216788;28;20476;-77
2022/07/18 09:47:59;;;;;;;2.03;1.73;;;27.10;22.00;;;;;;4225188;28;20587;-75
2022/07/18 09:49:59;;;;;;;1.80;1.60;;;27.30;21.60;;;;;;4220114;28;20178;-74
2022/07/18 09:52:06;;;;;;;5.97;4.77;;;27.60;21.60;;;;;;4223047;28;20174;-71
2022/07/18 09:54:06;;;;;;;2.10;1.90;;;28.10;22.60;;;;;;4213398;28;20171;-74
2022/07/18 09:56:12;;;;;;;2.43;1.67;;;27.60;21.50;;;;;;4222273;28;20170;-78
2022/07/18 09:58:18;;;;;;;2.00;1.80;;;27.80;21.50;;;;;;4221916;28;20273;-78
2022/07/18 10:00:18;;;;;;;3.27;1.90;;;27.50;22.60;;;;;;4229676;28;20272;-77
2022/07/18 10:02:19;;;;;;;2.13;1.93;;;27.30;21.60;;;;;;4230207;28;20239;-77
2022/07/18 10:04:20;;;;;;;3.53;1.70;;;27.30;22.10;;;;;;4225332;28;20171;-77
2022/07/18 10:06:23;;;;;;;3.40;3.20;;;27.70;22.00;;;;;;4222311;28;20175;-76
2022/07/18 10:08:29;;;;;;;2.03;1.70;;;28.10;21.50;;;;;;4224294;28;20197;-76
2022/07/18 10:10:30;;;;;;;3.87;1.73;;;28.20;21.20;;;;;;4220081;28;20679;-76
2022/07/18 10:12:31;;;;;;;1.80;1.70;;;28.30;21.30;;;;;;4219544;28;20170;-76
2022/07/18 10:14:32;;;;;;;3.97;1.93;;;28.90;21.90;;;;;;4211633;28;20201;-77
2022/07/18 10:16:33;;;;;;;2.20;2.00;;;29.20;19.90;;;;;;4222986;28;20233;-76
2022/07/18 10:18:36;;;;;;;3.43;1.60;;;29.20;21.40;;;;;;4217359;28;20549;-76
2022/07/18 10:20:39;;;;;;;1.90;1.80;;;29.20;19.80;;;;;;4223398;28;20194;-74
2022/07/18 10:22:42;;;;;;;2.60;2.37;;;29.50;19.90;;;;;;4215586;28;20546;-77
2022/07/18 10:24:43;;;;;;;2.80;1.90;;;29.30;20.40;;;;;;4227894;28;20194;-80
2022/07/18 10:26:43;;;;;;;2.70;2.00;;;29.50;20.60;;;;;;4223362;28;20911;-77
2022/07/18 10:28:56;;;;;;;2.00;1.90;;;29.20;20.10;;;;;;4229491;28;20186;-79
2022/07/18 10:31:14;;;;;;;2.85;2.10;;;29.50;19.80;;;;;;4220138;28;20609;-78
2022/07/18 10:33:45;;;;;;;2.30;2.10;;;30.20;19.90;;;;;;4206848;28;20189;-72
2022/07/18 10:36:03;;;;;;;2.30;1.90;;;30.30;19.40;;;;;;4226588;28;20198;-72